地図

経路データ

SID SEASON NUMBER BASIN SUBBASIN NAME ISO_TIME NATURE LAT LON WMO_WIND WMO_PRES WMO_AGENCY TRACK_TYPE DIST2LAND LANDFALL IFLAG USA_AGENCY USA_ATCF_ID USA_LAT USA_LON USA_RECORD USA_STATUS USA_WIND USA_PRES USA_SSHS USA_R34_NE USA_R34_SE USA_R34_SW USA_R34_NW USA_R50_NE USA_R50_SE USA_R50_SW USA_R50_NW USA_R64_NE USA_R64_SE USA_R64_SW USA_R64_NW USA_POCI USA_ROCI USA_RMW USA_EYE TOKYO_LAT TOKYO_LON TOKYO_GRADE TOKYO_WIND TOKYO_PRES TOKYO_R50_DIR TOKYO_R50_LONG TOKYO_R50_SHORT TOKYO_R30_DIR TOKYO_R30_LONG TOKYO_R30_SHORT TOKYO_LAND CMA_LAT CMA_LON CMA_CAT CMA_WIND CMA_PRES HKO_LAT HKO_LON HKO_CAT HKO_WIND HKO_PRES NEWDELHI_LAT NEWDELHI_LON NEWDELHI_GRADE NEWDELHI_WIND NEWDELHI_PRES NEWDELHI_CI NEWDELHI_DP NEWDELHI_POCI REUNION_LAT REUNION_LON REUNION_TYPE REUNION_WIND REUNION_PRES REUNION_TNUM REUNION_CI REUNION_RMW REUNION_R34_NE REUNION_R34_SE REUNION_R34_SW REUNION_R34_NW REUNION_R50_NE REUNION_R50_SE REUNION_R50_SW REUNION_R50_NW REUNION_R64_NE REUNION_R64_SE REUNION_R64_SW REUNION_R64_NW BOM_LAT BOM_LON BOM_TYPE BOM_WIND BOM_PRES BOM_TNUM BOM_CI BOM_RMW BOM_R34_NE BOM_R34_SE BOM_R34_SW BOM_R34_NW BOM_R50_NE BOM_R50_SE BOM_R50_SW BOM_R50_NW BOM_R64_NE BOM_R64_SE BOM_R64_SW BOM_R64_NW BOM_ROCI BOM_POCI BOM_EYE BOM_POS_METHOD BOM_PRES_METHOD NADI_LAT NADI_LON NADI_CAT NADI_WIND NADI_PRES WELLINGTON_LAT WELLINGTON_LON WELLINGTON_WIND WELLINGTON_PRES DS824_LAT DS824_LON DS824_STAGE DS824_WIND DS824_PRES TD9636_LAT TD9636_LON TD9636_STAGE TD9636_WIND TD9636_PRES TD9635_LAT TD9635_LON TD9635_WIND TD9635_PRES TD9635_ROCI NEUMANN_LAT NEUMANN_LON NEUMANN_CLASS NEUMANN_WIND NEUMANN_PRES MLC_LAT MLC_LON MLC_CLASS MLC_WIND MLC_PRES USA_GUST BOM_GUST BOM_GUST_PER REUNION_GUST REUNION_GUST_PER USA_SEAHGT USA_SEARAD_NE USA_SEARAD_SE USA_SEARAD_SW USA_SEARAD_NW STORM_SPEED STORM_DIR
1980068S13068 1980 21 SI MM LAURE 1980-03-08 00:00:00 TS -12.5000 67.5000 main 1347 1292 O________OO_O_ jtwc_sh SH191980 -12.5000 67.5000 50 0 -12.5000 67.5000 TC 50 -12.5000 67.5000 2 50 -12.5000 67.5000 TC 50 10 230
1980068S13068 1980 21 SI MM LAURE 1980-03-08 03:00:00 TS -12.8162 67.1114 main 1292 1237 P________PP_P_ SH191980 -12.8352 67.1103 50 0 -12.8352 67.1103 TC 50 -12.7592 67.1148 2 50 -12.8352 67.1103 TC 50 10 234
1980068S13068 1980 21 SI MM LAURE 1980-03-08 06:00:00 TS -13.0680 66.7085 reunion main 1237 1197 O____O___OP_O_ jtwc_sh SH191980 -13.1000 66.7000 50 0 -13.0000 66.8000 3 9.90000 -13.1000 66.7000 TC 50 -12.9946 66.7034 2 50 -13.1000 66.7000 TC 50 9 244
1980068S13068 1980 21 SI MM LAURE 1980-03-08 09:00:00 TS -13.2149 66.2597 main 1197 1150 P____P___PP_P_ SH191980 -13.2448 66.2449 50 0 -13.1000 66.3875 3 -13.2448 66.2449 TC 50 -13.1828 66.2402 2 50 -13.2448 66.2449 TC 50 10 257
1980068S13068 1980 21 SI MM LAURE 1980-03-08 12:00:00 TS -13.2842 65.7316 reunion main 1142 1095 O____O___OO_O_ jtwc_sh SH191980 -13.3000 65.7000 50 0 -13.2000 65.9000 99 9.90000 -13.3000 65.7000 TC 50 -13.3000 65.7000 2 50 -13.3000 65.7000 TC 50 12 264
1980068S13068 1980 21 SI MM LAURE 1980-03-08 15:00:00 TS -13.3258 65.0849 main 1095 1042 P____P___PP_P_ SH191980 -13.3376 65.0226 50 0 -13.2875 65.2877 99 -13.3376 65.0226 TC 50 -13.3290 65.0690 2 50 -13.3376 65.0226 TC 50 13 270
1980068S13068 1980 21 SI MM LAURE 1980-03-08 18:00:00 TS -13.2957 64.3759 reunion main 1042 1002 O____O___OP_O_ jtwc_sh SH191980 -13.3000 64.3000 50 0 -13.3000 64.6000 99 9.90000 -13.3000 64.3000 TC 50 -13.2783 64.3795 2 50 -13.3000 64.3000 TC 50 14 276
1980068S13068 1980 21 SI MM LAURE 1980-03-08 21:00:00 TS -13.1781 63.6900 main 1002 978 P____P___PP_P_ SH191980 -13.1799 63.6274 50 0 -13.1875 63.8924 99 -13.1799 63.6274 TC 50 -13.1633 63.6753 2 50 -13.1799 63.6274 TC 50 13 283
1980068S13068 1980 21 SI MM LAURE 1980-03-09 00:00:00 TS -13.0000 63.0400 reunion main 974 960 O____O___OO_O_ jtwc_sh SH191980 -13.0000 63.0000 50 0 -13.0000 63.2000 99 9.90000 -13.0000 63.0000 TC 50 -13.0000 63.0000 2 50 -13.0000 63.0000 TC 50 13 287
1980068S13068 1980 21 SI MM LAURE 1980-03-09 03:00:00 TS -12.8106 62.4587 main 963 951 P____P___PP_P_ SH191980 -12.8148 62.4351 50 0 -12.8074 62.5700 99 -12.8148 62.4351 TC 50 -12.8011 62.4178 2 50 -12.8148 62.4351 TC 50 12 290
1980068S13068 1980 21 SI MM LAURE 1980-03-09 06:00:00 TS -12.5928 61.9139 reunion main 951 946 O____O___OP_O_ jtwc_sh SH191980 -12.6000 61.9000 50 0 -12.6000 62.0000 3 9.90000 -12.6000 61.9000 TC 50 -12.5640 61.8696 2 50 -12.6000 61.9000 TC 50 12 294
1980068S13068 1980 21 SI MM LAURE 1980-03-09 09:00:00 TS -12.3464 61.3758 main 958 947 P____P___PP_P_ SH191980 -12.3424 61.3500 50 0 -12.3848 61.4925 3 -12.3424 61.3500 TC 50 -12.3199 61.3366 2 50 -12.3424 61.3500 TC 50 12 294
1980068S13068 1980 21 SI MM LAURE 1980-03-09 12:00:00 TS -12.1200 60.8400 reunion main 954 947 O____O___OO_O_ jtwc_sh SH191980 -12.1000 60.8000 50 0 -12.2000 61.0000 99 9.90000 -12.1000 60.8000 TC 50 -12.1000 60.8000 2 50 -12.1000 60.8000 TC 50 11 290
1980068S13068 1980 21 SI MM LAURE 1980-03-09 15:00:00 TS -11.9590 60.2922 main 948 944 P____P___PP_P_ SH191980 -11.9273 60.2576 50 0 -12.1073 60.4803 99 -11.9273 60.2576 TC 50 -11.9057 60.2078 2 50 -11.9273 60.2576 TC 50 11 285
1980068S13068 1980 21 SI MM LAURE 1980-03-09 18:00:00 TS -11.8290 59.7225 reunion main 953 948 O____O___OP_O_ jtwc_sh SH191980 -11.8000 59.7000 50 0 -12.0000 59.9000 99 9.90000 -11.8000 59.7000 TC 50 -11.7451 59.6123 2 50 -11.8000 59.7000 TC 50 12 284
1980068S13068 1980 21 SI MM LAURE 1980-03-09 21:00:00 TS -11.6734 59.1100 main 951 944 P____P___PP_P_ SH191980 -11.6700 59.0999 50 0 -11.7200 59.2145 99 -11.6700 59.0999 TC 50 -11.6370 59.0357 2 50 -11.6700 59.0999 TC 50 12 282
1980068S13068 1980 21 SI MM LAURE 1980-03-10 00:00:00 TS -11.5800 58.5000 reunion main 944 881 O____O___OO_O_ jtwc_sh SH191980 -11.6000 58.5000 50 0 -11.5000 58.5000 99 9.90000 -11.6000 58.5000 TC 50 -11.6000 58.5000 2 50 -11.6000 58.5000 TC 50 12 274
1980068S13068 1980 21 SI MM LAURE 1980-03-10 03:00:00 TS -11.5913 57.8925 main 881 825 P____P___PP_P_ SH191980 -11.6050 57.9051 50 0 -11.5252 57.7679 99 -11.6050 57.9051 TC 50 -11.6164 57.9796 2 50 -11.6050 57.9051 TC 50 11 264
1980068S13068 1980 21 SI MM LAURE 1980-03-10 06:00:00 TS -11.7015 57.3816 reunion main 825 778 O____O___OP_O_ jtwc_sh SH191980 -11.7000 57.4000 50 0 -11.7000 57.2000 3 9.90000 -11.7000 57.4000 TC 50 -11.7074 57.5082 2 50 -11.7000 57.4000 TC 50 9 252
1980068S13068 1980 21 SI MM LAURE 1980-03-10 09:00:00 TS -11.8678 57.0345 main 778 750 P____P___PP_P_ SH191980 -11.8549 57.0325 50 0 -11.9047 56.9674 3 -11.8549 57.0325 TC 50 -11.8697 57.1076 2 50 -11.8549 57.0325 TC 50 7 233
1980068S13068 1980 21 SI MM LAURE 1980-03-10 12:00:00 TS -12.1200 56.8200 reunion main 750 732 O____O___OO_O_ jtwc_sh SH191980 -12.1000 56.8000 50 0 -12.2000 56.9000 99 9.90000 -12.1000 56.8000 TC 50 -12.1000 56.8000 2 50 -12.1000 56.8000 TC 50 7 211
1980068S13068 1980 21 SI MM LAURE 1980-03-10 15:00:00 TS -12.4521 56.6817 main 729 711 P____P___PP_P_ SH191980 -12.4274 56.6699 50 0 -12.5850 56.7925 99 -12.4274 56.6699 TC 50 -12.3930 56.6064 2 50 -12.4274 56.6699 TC 50 7 197
1980068S13068 1980 21 SI MM LAURE 1980-03-10 18:00:00 TS -12.8294 56.6004 reunion main 711 684 O____O___OP_O_ jtwc_sh SH191980 -12.8000 56.6000 50 0 -13.0000 56.7000 99 9.90000 -12.8000 56.6000 TC 50 -12.7470 56.5022 2 50 -12.8000 56.6000 TC 50 8 193
1980068S13068 1980 21 SI MM LAURE 1980-03-10 21:00:00 TS -13.1945 56.5109 main 684 663 P____P___PP_P_ SH191980 -13.1575 56.5000 50 0 -13.3725 56.6075 99 -13.1575 56.5000 TC 50 -13.1275 56.4469 2 50 -13.1575 56.5000 TC 50 7 194
1980068S13068 1980 21 SI MM LAURE 1980-03-11 00:00:00 TS -13.5400 56.4200 reunion main 663 644 O____O___OO_O_ jtwc_sh SH191980 -13.5000 56.4000 50 0 -13.7000 56.5000 99 9.90000 -13.5000 56.4000 TC 50 -13.5000 56.4000 2 50 -13.5000 56.4000 TC 50 7 197
1980068S13068 1980 21 SI MM LAURE 1980-03-11 03:00:00 TS -13.8366 56.3067 main 644 625 P____P___PP_P_ SH191980 -13.8075 56.3000 52 0 -13.9500 56.3500 99 -13.8075 56.3000 TC 52 -13.8103 56.2838 2 52 -13.8075 56.3000 TC 52 6 201
1980068S13068 1980 21 SI MM LAURE 1980-03-11 06:00:00 TS -14.1215 56.1940 reunion main 625 608 O____O___OP_O_ jtwc_sh SH191980 -14.1000 56.2000 55 0 -14.2000 56.2000 3 9.90000 -14.1000 56.2000 TC 55 -14.1075 56.1701 2 55 -14.1000 56.2000 TC 55 6 200
1980068S13068 1980 21 SI MM LAURE 1980-03-11 09:00:00 TS -14.4317 56.0853 main 608 593 P____P___PP_P_ SH191980 -14.4000 56.0925 57 0 -14.5575 56.0775 3 -14.4000 56.0925 TC 57 -14.4010 56.0713 2 57 -14.4000 56.0925 TC 57 7 197
1980068S13068 1980 21 SI MM LAURE 1980-03-11 12:00:00 TS -14.7400 56.0000 reunion main 593 580 O____O___OO_O_ jtwc_sh SH191980 -14.7000 56.0000 60 0 -14.9000 56.0000 99 9.90000 -14.7000 56.0000 TC 60 -14.7000 56.0000 2 60 -14.7000 56.0000 TC 60 6 193
1980068S13068 1980 21 SI MM LAURE 1980-03-11 15:00:00 TS -15.0174 55.9413 main 580 563 P____P___PP_P_ SH191980 -14.9925 55.9275 62 0 -15.1000 55.9849 99 -14.9925 55.9275 TC 62 -15.0096 55.9390 2 62 -14.9925 55.9275 TC 62 6 188
1980068S13068 1980 21 SI MM LAURE 1980-03-11 18:00:00 TS -15.3055 55.9221 reunion main 563 531 O____O___OP_O_ jtwc_sh SH191980 -15.3000 55.9000 65 1 -15.3000 56.0000 99 9.90000 -15.3000 55.9000 TC 65 -15.3274 55.9104 2 65 -15.3000 55.9000 TC 65 6 181
1980068S13068 1980 21 SI MM LAURE 1980-03-11 21:00:00 TS -15.6453 55.9314 main 531 485 P____P___PP_P_ SH191980 -15.6425 55.9200 67 1 -15.6425 55.9701 99 -15.6425 55.9200 TC 67 -15.6564 55.9266 2 67 -15.6425 55.9200 TC 67 7 174
1980068S13068 1980 21 SI MM LAURE 1980-03-12 00:00:00 TS -16.0000 56.0000 reunion main 485 450 O____O___OO_O_ jtwc_sh SH191980 -16.0000 56.0000 70 1 -16.0000 56.0000 99 9.90000 -16.0000 56.0000 TC 70 -16.0000 56.0000 4 70 -16.0000 56.0000 TC 70 7 164
1980068S13068 1980 21 SI MM LAURE 1980-03-12 03:00:00 TS -16.3230 56.1299 main 450 411 P____P___PP_P_ SH191980 -16.3425 56.1201 72 1 -16.2350 56.1551 99 -16.3425 56.1201 TC 72 -16.3526 56.1343 4 72 -16.3425 56.1201 TC 72 7 155
1980068S13068 1980 21 SI MM LAURE 1980-03-12 06:00:00 TS -16.6640 56.3250 reunion main 400 359 O____O___OP_O_ jtwc_sh SH191980 -16.7000 56.3000 75 1 -16.5000 56.4000 4 9.90000 -16.7000 56.3000 TC 75 -16.7201 56.3250 4 75 -16.7000 56.3000 TC 75 9 150
1980068S13068 1980 21 SI MM LAURE 1980-03-12 09:00:00 TS -17.0570 56.5701 main 348 300 P____P___PP_P_ SH191980 -17.0925 56.5350 77 1 -16.9051 56.6925 4 -17.0925 56.5350 TC 77 -17.1025 56.5532 4 77 -17.0925 56.5350 TC 77 10 149
1980068S13068 1980 21 SI MM LAURE 1980-03-12 12:00:00 TS -17.4800 56.8400 reunion main 300 249 O____O___OO_O_ jtwc_sh SH191980 -17.5000 56.8000 80 1 -17.4000 57.0000 99 9.90000 -17.5000 56.8000 TC 80 -17.5000 56.8000 4 80 -17.5000 56.8000 TC 80 10 150
1980068S13068 1980 21 SI MM LAURE 1980-03-12 15:00:00 TS -17.9067 57.0888 main 249 202 P____P___PP_P_ SH191980 -17.8925 57.0501 85 2 -17.9574 57.2576 99 -17.8925 57.0501 TC 85 -17.8984 57.0359 4 85 -17.8925 57.0501 TC 85 10 151
1980068S13068 1980 21 SI MM LAURE 1980-03-12 18:00:00 TS -18.3425 57.3371 reunion main 202 156 O____O___OP_O_ jtwc_sh SH191980 -18.3000 57.3000 90 2 -18.5000 57.5000 99 9.90000 -18.3000 57.3000 TC 90 -18.3125 57.2854 4 90 -18.3000 57.3000 TC 90 10 151
1980068S13068 1980 21 SI MM LAURE 1980-03-12 21:00:00 TS -18.7670 57.5916 main 145 101 P____P___PP_P_ SH191980 -18.7275 57.5502 95 2 -18.9075 57.7652 99 -18.7275 57.5502 TC 95 -18.7453 57.5422 4 95 -18.7275 57.5502 TC 95 10 151
1980068S13068 1980 21 SI MM LAURE 1980-03-13 00:00:00 TS -19.2200 57.8400 reunion main 101 54 O____O___OO_O_ jtwc_sh SH191980 -19.2000 57.8000 100 3 -19.3000 58.0000 99 9.90000 -19.2000 57.8000 TC 100 -19.2000 57.8000 4 100 -19.2000 57.8000 TC 100 11 155
1980068S13068 1980 21 SI MM LAURE 1980-03-13 03:00:00 TS -19.7483 58.0676 main 61 43 P____P___PP_P_ SH191980 -19.7500 58.0500 100 3 -19.7849 58.1577 99 -19.7500 58.0500 TC 100 -19.7065 58.0300 4 100 -19.7500 58.0500 TC 102 12 158
1980068S13068 1980 21 SI MM LAURE 1980-03-13 06:00:00 TS -20.2859 58.2926 reunion main 52 52 O____O___OP_O_ jtwc_sh SH191980 -20.3000 58.3000 100 3 -20.3000 58.3000 4 9.90000 -20.3000 58.3000 TC 100 -20.2295 58.2630 4 100 -20.3000 58.3000 TC 105 11 158
1980068S13068 1980 21 SI MM LAURE 1980-03-13 09:00:00 TS -20.7844 58.5136 main 89 89 P____P___PP_P_ SH191980 -20.7874 58.5352 100 3 -20.8223 58.4478 4 -20.7874 58.5352 TC 100 -20.7377 58.5144 4 100 -20.7874 58.5352 TC 102 10 154
1980068S13068 1980 21 SI MM LAURE 1980-03-13 12:00:00 TS -21.2200 58.7800 reunion main 138 138 O____O___OO_O_ jtwc_sh SH191980 -21.2000 58.8000 100 3 -21.3000 58.7000 99 9.90000 -21.2000 58.8000 TC 100 -21.2000 58.8000 4 100 -21.2000 58.8000 TC 100 10 143
1980068S13068 1980 21 SI MM LAURE 1980-03-13 15:00:00 TS -21.5586 59.1378 main 190 190 P____P___PP_P_ SH191980 -21.5150 59.1278 97 3 -21.6728 59.1699 99 -21.5150 59.1278 TC 97 -21.5753 59.1356 4 97 -21.5150 59.1278 TC 97 10 132
1980068S13068 1980 21 SI MM LAURE 1980-03-13 18:00:00 TS -21.8605 59.5412 reunion main 243 243 O____O___OP_O_ jtwc_sh SH191980 -21.8000 59.5000 95 2 -22.0000 59.7000 99 9.90000 -21.8000 59.5000 TC 95 -21.9025 59.5059 4 95 -21.8000 59.5000 TC 95 10 131
1980068S13068 1980 21 SI MM LAURE 1980-03-13 21:00:00 TS -22.2066 59.9382 main 296 296 P____P___PP_P_ SH191980 -22.1500 59.8925 92 2 -22.3798 60.1150 99 -22.1500 59.8925 TC 92 -22.2034 59.8982 4 92 -22.1500 59.8925 TC 92 10 133
1980068S13068 1980 21 SI MM LAURE 1980-03-14 00:00:00 TS -22.5400 60.3400 reunion main 349 349 O____O___OO_O_ jtwc_sh SH191980 -22.5000 60.3000 90 2 -22.7000 60.5000 99 9.90000 -22.5000 60.3000 TC 90 -22.5000 60.3000 4 90 -22.5000 60.3000 TC 90 10 129
1980068S13068 1980 21 SI MM LAURE 1980-03-14 03:00:00 TS -22.8103 60.7509 main 410 410 P____P___PP_P_ SH191980 -22.7999 60.7003 85 2 -22.8425 60.9081 99 -22.7999 60.7003 TC 85 -22.8092 60.7453 4 86 -22.7999 60.7003 TC 85 9 126
1980068S13068 1980 21 SI MM LAURE 1980-03-14 06:00:00 TS -23.0842 61.1579 reunion main 463 463 O____O___OP_O_ jtwc_sh SH191980 -23.1000 61.1000 80 1 -23.0000 61.3000 3 9.90000 -23.1000 61.1000 TC 80 -23.1208 61.1894 4 82 -23.1000 61.1000 TC 80 10 129
1980068S13068 1980 21 SI MM LAURE 1980-03-14 09:00:00 TS -23.4200 61.5821 main 516 516 P____P___PP_P_ SH191980 -23.4351 61.5448 77 1 -23.3475 61.6872 3 -23.4351 61.5448 TC 77 -23.4468 61.5888 4 78 -23.4351 61.5448 TC 77 10 136
1980068S13068 1980 21 SI MM LAURE 1980-03-14 12:00:00 TS -23.8000 61.9200 reunion main 568 568 O____O___OO_O_ jtwc_sh SH191980 -23.8000 61.9000 75 1 -23.8000 62.0000 99 9.90000 -23.8000 61.9000 TC 75 -23.8000 61.9000 4 75 -23.8000 61.9000 TC 75 9 150
1980068S13068 1980 21 SI MM LAURE 1980-03-14 15:00:00 TS -24.2045 62.0816 main 612 612 P____P___PP_P_ SH191980 -24.1848 62.0529 72 1 -24.2849 62.1878 99 -24.1848 62.0529 TC 72 -24.1834 62.0618 4 72 -24.1848 62.0529 TC 72 9 166
1980068S13068 1980 21 SI MM LAURE 1980-03-14 18:00:00 TS -24.6393 62.1469 reunion main 643 643 O____O___OP_O_ jtwc_sh SH191980 -24.6000 62.1000 70 1 -24.8000 62.3000 99 9.90000 -24.6000 62.1000 TC 70 -24.5967 62.1346 4 70 -24.6000 62.1000 TC 70 9 173
1980068S13068 1980 21 SI MM LAURE 1980-03-14 21:00:00 TS -25.0868 62.2032 main 690 690 P____P___PP_P_ SH191980 -25.0350 62.1502 67 1 -25.2925 62.4003 99 -25.0350 62.1502 TC 67 -25.0367 62.1649 4 67 -25.0350 62.1502 TC 67 9 174
1980068S13068 1980 21 SI MM LAURE 1980-03-15 00:00:00 TS -25.5600 62.2600 reunion main 738 738 O____O___OO_O_ jtwc_sh SH191980 -25.5000 62.2000 65 1 -25.8000 62.5000 99 9.90000 -25.5000 62.2000 TC 65 -25.5000 62.2000 4 65 -25.5000 62.2000 TC 65 10 171
1980068S13068 1980 21 SI MM LAURE 1980-03-15 03:00:00 TS -26.0658 62.3646 main 788 788 P____P___PP_P_ SH191980 -25.9925 62.2851 62 0 -26.3650 62.6572 99 -25.9925 62.2851 TC 62 -25.9866 62.3105 4 63 -25.9925 62.2851 TC 62 10 169
1980068S13068 1980 21 SI MM LAURE 1980-03-15 06:00:00 TS -26.5785 62.4870 reunion main 838 838 O____O___OP_O_ jtwc_sh SH191980 -26.5000 62.4000 60 0 -26.9000 62.8000 3 9.90000 -26.5000 62.4000 TC 60 -26.4925 62.4349 4 62 -26.5000 62.4000 TC 60 10 168
1980068S13068 1980 21 SI MM LAURE 1980-03-15 09:00:00 TS -27.0694 62.6149 main 889 889 P____P___PP_P_ SH191980 -27.0075 62.5499 60 0 -27.3225 62.8578 3 -27.0075 62.5499 TC 60 -27.0022 62.5668 4 61 -27.0075 62.5499 TC 60 10 167
1980068S13068 1980 21 SI MM LAURE 1980-03-15 12:00:00 TS -27.5400 62.7400 reunion main 932 932 O____O___OO_O_ jtwc_sh SH191980 -27.5000 62.7000 60 0 -27.7000 62.9000 99 9.90000 -27.5000 62.7000 TC 60 -27.5000 62.7000 2 60 -27.5000 62.7000 TC 60 9 168
1980068S13068 1980 21 SI MM LAURE 1980-03-15 15:00:00 TS -27.9890 62.8359 main 984 984 P____P___PP_P_ SH191980 -27.9575 62.8003 57 0 -28.0925 62.9851 99 -27.9575 62.8003 TC 57 -27.9803 62.7936 2 57 -27.9575 62.8003 TC 57 9 169
1980068S13068 1980 21 SI MM LAURE 1980-03-15 18:00:00 TS -28.4289 62.9383 reunion main 1027 1027 O____O___OP_O_ jtwc_sh SH191980 -28.4000 62.9000 55 0 -28.5000 63.1000 99 9.90000 -28.4000 62.9000 TC 55 -28.4444 62.8916 2 55 -28.4000 62.9000 TC 55 9 167
1980068S13068 1980 21 SI MM LAURE 1980-03-15 21:00:00 TS -28.8892 63.0644 main 1085 1085 P____P___PP_P_ SH191980 -28.8649 63.0276 52 0 -28.9649 63.2201 99 -28.8649 63.0276 TC 52 -28.8864 63.0187 2 52 -28.8649 63.0276 TC 52 9 163
1980068S13068 1980 21 SI MM LAURE 1980-03-16 00:00:00 TS -29.3200 63.2400 reunion main 1128 1128 O____O___OO_O_ jtwc_sh SH191980 -29.3000 63.2000 50 0 -29.4000 63.4000 99 9.90000 -29.3000 63.2000 TC 50 -29.3000 63.2000 2 50 -29.3000 63.2000 TC 50 9 156
1980068S13068 1980 21 SI MM LAURE 1980-03-16 03:00:00 TS -29.6769 63.4737 main 1181 1181 P____P___PP_P_ SH191980 -29.6649 63.4128 50 0 -29.7150 63.6703 99 -29.6649 63.4128 TC 50 -29.6748 63.4596 2 50 -29.6649 63.4128 TC 50 8 146
1980068S13068 1980 21 SI MM LAURE 1980-03-16 06:00:00 MX -30.0045 63.7751 reunion main 1225 1225 O____O___OP_O_ jtwc_sh SH191980 -30.0000 63.7000 50 0 -30.0000 64.0000 5 9.90000 -30.0000 63.7000 TC 50 -30.0226 63.7755 2 50 -30.0000 63.7000 TC 50 9 139
1980068S13068 1980 21 SI MM LAURE 1980-03-16 09:00:00 MX -30.3489 64.1482 main 1268 1268 P____P___PP_P_ SH191980 -30.3501 64.0850 50 0 -30.3351 64.3575 5 -30.3501 64.0850 TC 50 -30.3591 64.1287 2 50 -30.3501 64.0850 TC 50 10 137
1980068S13068 1980 21 SI MM LAURE 1980-03-16 12:00:00 TS -30.7000 64.5400 reunion main 1326 1326 O____O___OO_O_ jtwc_sh SH191980 -30.7000 64.5000 50 0 -30.7000 64.7000 99 9.90000 -30.7000 64.5000 TC 50 -30.7000 64.5000 2 50 -30.7000 64.5000 TC 50 9 139
1980068S13068 1980 21 SI MM LAURE 1980-03-16 15:00:00 TS -31.0583 64.8721 main 1384 1384 P____P___PP_P_ SH191980 -31.0423 64.8505 47 0 -31.1071 64.9355 99 -31.0423 64.8505 TC 47 -31.0578 64.8737 2 46 -31.0423 64.8505 TC 47 9 142
1980068S13068 1980 21 SI MM LAURE 1980-03-16 18:00:00 TS -31.4307 65.2089 reunion main 1428 1428 O____O___OP_O_ jtwc_sh SH191980 -31.4000 65.2000 45 0 -31.5000 65.2000 99 9.90000 -31.4000 65.2000 TC 45 -31.4306 65.2475 2 42 -31.4000 65.2000 TC 45 10 140
1980068S13068 1980 21 SI MM LAURE 1980-03-16 21:00:00 TS -31.7949 65.6039 main 1486 1486 P____P___PP_P_ SH191980 -31.7903 65.5866 40 0 -31.7926 65.6205 99 -31.7903 65.5866 TC 40 -31.8132 65.6227 2 38 -31.7903 65.5866 TC 40 10 136
1980068S13068 1980 21 SI MM LAURE 1980-03-17 00:00:00 TS -32.1571 66.0429 reunion main 1544 1544 O____O___OO_O_ jtwc_sh SH191980 -32.2000 66.0000 35 0 -32.1000 66.1000 99 9.90000 -32.2000 66.0000 TC 35 -32.2000 66.0000 2 35 -32.2000 66.0000 TC 35 11 132
1980068S13068 1980 21 SI MM LAURE 1980-03-17 03:00:00 NR -32.5152 66.5589 main 1604 1604 _____P________ SH191980 -1 -32.5152 66.5589 99 TC 2 TC 12 136
1980068S13068 1980 21 SI MM LAURE 1980-03-17 06:00:00 TS -33.0000 67.0000 reunion main 1671 _____O________ -1 -33.0000 67.0000 6 9.90000 2 12 143

IBTrACS Databaseについて

本データベースは、米国NOAAが公開する1842年以降の世界の熱帯低気圧のベストトラックデータアーカイブInternational Best Track Archive for Climate Stewardship (IBTrACS)を、ウェブで閲覧しやすい形式に変換したものです。

最終更新日:2021-10-21